Time;durP1;ratioP1;P1;durP2;ratioP2;P2;SDS_P1;SDS_P2;PMS_P1;PMS_P2;Temp;Humidity;BMP_temperature;BMP_pressure;BME280_temperature;BME280_humidity;BME280_pressure;Samples;Min_cycle;Max_cycle;Signal;HPM_P1;HPM_P2
2022/08/06 00:00:07;;;;;;;;;;;;;;;25.85;42.24;99341.09;3150903;28;19943;-66
2022/08/06 00:01:37;;;;;;;;;;;;;;;25.84;42.29;99344.78;3147030;28;19920;-66
2022/08/06 00:03:09;;;;;;;;;;;;;;;25.83;41.98;99338.63;3147070;28;19924;-66
2022/08/06 00:04:40;;;;;;;;;;;;;;;25.81;41.96;99335.25;3146977;28;19927;-66
2022/08/06 00:06:12;;;;;;;;;;;;;;;25.79;42.01;99344.44;3146921;28;19920;-66
2022/08/06 00:07:42;;;;;;;;;;;;;;;25.78;42.42;99335.63;3147060;28;19993;-66
2022/08/06 00:09:14;;;;;;;;;;;;;;;25.77;42.35;99341.16;3147157;28;20007;-66
2022/08/06 00:10:46;;;;;;;;;;;;;;;25.77;42.52;99338.47;3146947;28;20003;-66
2022/08/06 00:12:17;;;;;;;;;;;;;;;25.76;42.56;99342.13;3146662;28;19944;-66
2022/08/06 00:13:50;;;;;;;;;;;;;;;25.75;42.70;99340.50;3146936;28;19920;-66
2022/08/06 00:15:22;;;;;;;;;;;;;;;25.74;42.44;99341.50;3146973;28;19920;-66
2022/08/06 00:16:52;;;;;;;;;;;;;;;25.72;42.75;99341.66;3146804;28;20374;-66
2022/08/06 00:18:24;;;;;;;;;;;;;;;25.70;43.06;99340.19;3146784;28;19928;-66
2022/08/06 00:19:56;;;;;;;;;;;;;;;25.65;43.14;99341.56;3146977;28;19928;-66
2022/08/06 00:21:28;;;;;;;;;;;;;;;25.58;43.29;99337.09;3146678;28;19924;-66
2022/08/06 00:23:00;;;;;;;;;;;;;;;25.51;43.72;99337.00;3145165;28;19924;-66
2022/08/06 00:24:30;;;;;;;;;;;;;;;25.45;44.09;99331.53;3146834;28;19920;-66
2022/08/06 00:26:02;;;;;;;;;;;;;;;25.43;43.47;99337.84;3147000;28;20360;-66
2022/08/06 00:27:34;;;;;;;;;;;;;;;25.43;43.42;99329.84;3146829;28;19955;-66
2022/08/06 00:29:06;;;;;;;;;;;;;;;25.43;43.81;99339.69;3147607;28;19920;-66
2022/08/06 00:30:38;;;;;;;;;;;;;;;25.38;44.32;99331.41;3150873;28;19924;-66
2022/08/06 00:32:09;;;;;;;;;;;;;;;25.35;44.24;99335.25;3146627;28;19924;-66
2022/08/06 00:33:41;;;;;;;;;;;;;;;25.35;44.14;99337.06;3146894;28;19932;-66
2022/08/06 00:35:13;;;;;;;;;;;;;;;25.34;44.33;99338.91;3146826;28;19928;-66
2022/08/06 00:36:44;;;;;;;;;;;;;;;25.33;44.20;99336.44;3146858;28;20046;-66
2022/08/06 00:38:16;;;;;;;;;;;;;;;25.32;44.41;99340.09;3146877;28;19920;-66
2022/08/06 00:39:48;;;;;;;;;;;;;;;25.30;44.14;99342.94;3146611;28;19924;-66
2022/08/06 00:41:19;;;;;;;;;;;;;;;25.30;44.12;99334.94;3146008;28;19944;-66
2022/08/06 00:42:51;;;;;;;;;;;;;;;25.30;44.21;99339.47;3146721;28;19943;-66
2022/08/06 00:44:25;;;;;;;;;;;;;;;25.31;43.86;99344.59;3147409;28;20278;-66
2022/08/06 00:45:55;;;;;;;;;;;;;;;25.32;44.15;99332.09;3146879;28;19978;-66
2022/08/06 00:47:27;;;;;;;;;;;;;;;25.32;44.12;99335.63;3146499;28;19925;-66
2022/08/06 00:48:58;;;;;;;;;;;;;;;25.33;43.98;99339.09;3148918;28;19928;-66
2022/08/06 00:50:30;;;;;;;;;;;;;;;25.33;44.17;99334.59;3149014;28;20008;-66
2022/08/06 00:52:02;;;;;;;;;;;;;;;25.35;44.20;99332.59;3148857;28;20026;-66
2022/08/06 00:53:36;;;;;;;;;;;;;;;25.35;44.44;99332.59;3148933;28;19920;-66
2022/08/06 00:55:08;;;;;;;;;;;;;;;25.36;44.28;99328.09;3148705;28;19962;-66
2022/08/06 00:56:40;;;;;;;;;;;;;;;25.37;44.02;99335.06;3144313;28;19951;-66
2022/08/06 00:58:11;;;;;;;;;;;;;;;25.37;44.20;99332.41;3142883;28;20018;-66
2022/08/06 00:59:44;;;;;;;;;;;;;;;25.35;44.29;99334.41;3149797;28;20025;-66
2022/08/06 01:01:15;;;;;;;;;;;;;;;25.33;44.49;99331.09;3150188;28;19947;-66
2022/08/06 01:02:47;;;;;;;;;;;;;;;25.29;44.94;99333.31;3148647;28;19921;-66
2022/08/06 01:04:19;;;;;;;;;;;;;;;25.28;44.81;99338.78;3148880;28;19935;-66
2022/08/06 01:05:50;;;;;;;;;;;;;;;25.23;45.45;99343.81;3148940;28;19935;-66
2022/08/06 01:07:22;;;;;;;;;;;;;;;25.19;44.90;99341.50;3148569;28;19921;-66
2022/08/06 01:08:53;;;;;;;;;;;;;;;25.20;45.11;99345.00;3148861;28;19924;-66
2022/08/06 01:10:24;;;;;;;;;;;;;;;25.20;44.94;99345.00;3148666;28;19935;-66
2022/08/06 01:11:56;;;;;;;;;;;;;;;25.21;45.16;99346.66;3148775;28;19920;-66
2022/08/06 01:13:28;;;;;;;;;;;;;;;25.16;45.12;99341.03;3148590;28;19950;-66
2022/08/06 01:15:01;;;;;;;;;;;;;;;25.12;45.30;99342.34;3148681;28;19924;-66
2022/08/06 01:16:36;;;;;;;;;;;;;;;25.09;45.27;99340.88;3148674;28;19932;-66
2022/08/06 01:18:10;;;;;;;;;;;;;;;25.03;45.06;99333.56;3148548;28;19920;-66
2022/08/06 01:19:47;;;;;;;;;;;;;;;25.00;45.12;99339.25;3148471;28;19998;-66
2022/08/06 01:21:24;;;;;;;;;;;;;;;24.94;45.30;99337.28;3148548;28;19920;-66
2022/08/06 01:23:01;;;;;;;;;;;;;;;24.90;45.43;99325.28;3146052;28;20003;-66
2022/08/06 01:24:48;;;;;;;;;;;;;;;24.88;45.23;99330.81;3148815;28;20005;-66
2022/08/06 01:26:39;;;;;;;;;;;;;;;24.83;45.41;99333.16;3148490;28;20674;-66
2022/08/06 01:28:15;;;;;;;;;;;;;;;24.77;45.43;99331.19;3148498;28;20378;-66
2022/08/06 01:29:48;;;;;;;;;;;;;;;24.75;45.54;99331.34;3152320;28;19983;-66
2022/08/06 01:31:22;;;;;;;;;;;;;;;24.70;45.58;99333.69;3148095;28;19935;-66
2022/08/06 01:32:57;;;;;;;;;;;;;;;24.64;45.82;99336.19;3148344;28;19924;-66
2022/08/06 01:34:31;;;;;;;;;;;;;;;24.60;45.47;99335.72;3148237;28;19978;-66
2022/08/06 01:36:05;;;;;;;;;;;;;;;24.59;45.59;99327.91;3148299;28;20279;-66
2022/08/06 01:37:39;;;;;;;;;;;;;;;24.62;45.58;99332.91;3148362;28;20261;-66
2022/08/06 01:39:12;;;;;;;;;;;;;;;24.63;45.18;99329.22;3141916;28;20347;-66
2022/08/06 01:40:46;;;;;;;;;;;;;;;24.60;45.75;99333.06;3148223;28;19931;-66
2022/08/06 01:42:19;;;;;;;;;;;;;;;24.58;45.56;99329.75;3148384;28;19959;-66
2022/08/06 01:43:53;;;;;;;;;;;;;;;24.58;45.67;99326.22;3148333;28;19921;-66
2022/08/06 01:45:28;;;;;;;;;;;;;;;24.57;45.36;99325.41;3154389;28;19924;-66
2022/08/06 01:47:01;;;;;;;;;;;;;;;24.55;45.69;99324.78;3148369;28;19924;-66
2022/08/06 01:48:37;;;;;;;;;;;;;;;24.54;45.87;99332.91;3148329;28;19920;-66
2022/08/06 01:50:09;;;;;;;;;;;;;;;24.51;46.01;99326.91;3148103;28;19920;-66
2022/08/06 01:51:40;;;;;;;;;;;;;;;24.52;45.70;99333.91;3148024;28;19931;-66
2022/08/06 01:53:14;;;;;;;;;;;;;;;24.52;46.07;99338.38;3148182;28;19931;-66
2022/08/06 01:54:47;;;;;;;;;;;;;;;24.49;45.89;99330.75;3142151;28;19924;-66
2022/08/06 01:56:19;;;;;;;;;;;;;;;24.48;46.08;99337.09;3148184;28;19931;-66
2022/08/06 01:57:53;;;;;;;;;;;;;;;24.45;46.30;99337.41;3147963;28;19931;-66
2022/08/06 01:59:28;;;;;;;;;;;;;;;24.40;46.42;99334.41;3147700;28;19935;-66
2022/08/06 02:01:02;;;;;;;;;;;;;;;24.36;46.49;99333.91;3149351;28;19993;-66
2022/08/06 02:02:35;;;;;;;;;;;;;;;24.34;46.38;99329.75;3147914;28;20367;-66
2022/08/06 02:04:08;;;;;;;;;;;;;;;24.30;46.81;99329.28;3148008;28;20361;-66
2022/08/06 02:05:41;;;;;;;;;;;;;;;24.19;47.20;99325.13;3147469;28;20264;-66
2022/08/06 02:07:14;;;;;;;;;;;;;;;24.11;47.29;99330.47;3148036;28;19975;-66
2022/08/06 02:08:47;;;;;;;;;;;;;;;24.08;47.58;99325.50;3147794;28;19924;-66
2022/08/06 02:10:20;;;;;;;;;;;;;;;24.04;47.63;99329.47;3141324;28;19920;-66
2022/08/06 02:11:55;;;;;;;;;;;;;;;24.02;47.49;99334.97;3147856;28;19928;-66
2022/08/06 02:13:29;;;;;;;;;;;;;;;24.01;47.72;99327.13;3147726;28;20272;-66
2022/08/06 02:15:03;;;;;;;;;;;;;;;23.97;47.88;99321.31;3148320;28;19990;-66
2022/08/06 02:16:36;;;;;;;;;;;;;;;23.97;48.00;99325.81;3147852;28;20011;-66
2022/08/06 02:18:10;;;;;;;;;;;;;;;23.94;47.99;99331.47;3147955;28;19935;-66
2022/08/06 02:19:44;;;;;;;;;;;;;;;23.89;48.60;99325.81;3147926;28;19935;-66
2022/08/06 02:21:17;;;;;;;;;;;;;;;23.81;48.86;99324.81;3147676;28;20346;-66
2022/08/06 02:22:49;;;;;;;;;;;;;;;23.74;49.10;99326.47;3147378;28;19920;-66
2022/08/06 02:24:23;;;;;;;;;;;;;;;23.69;49.27;99330.59;3147723;28;20423;-66
2022/08/06 02:25:55;;;;;;;;;;;;;;;23.66;49.61;99323.75;3146449;28;20016;-66
2022/08/06 02:27:28;;;;;;;;;;;;;;;23.68;49.34;99332.41;3147666;28;20736;-66
2022/08/06 02:29:01;;;;;;;;;;;;;;;23.66;49.46;99325.59;3147703;28;19924;-66
2022/08/06 02:30:35;;;;;;;;;;;;;;;23.65;49.60;99324.78;3149566;28;19999;-66
2022/08/06 02:32:06;;;;;;;;;;;;;;;23.69;49.15;99320.78;3147420;28;19927;-66
2022/08/06 02:33:38;;;;;;;;;;;;;;;23.73;49.07;99327.47;3147655;28;20257;-66
2022/08/06 02:35:09;;;;;;;;;;;;;;;23.75;48.72;99321.97;3147544;28;20275;-66
2022/08/06 02:36:43;;;;;;;;;;;;;;;23.77;48.83;99323.47;3147586;28;19920;-66
2022/08/06 02:38:18;;;;;;;;;;;;;;;23.80;48.64;99323.16;3147565;28;19951;-66
2022/08/06 02:39:53;;;;;;;;;;;;;;;23.83;48.52;99322.00;3147666;28;20008;-66
2022/08/06 02:41:28;;;;;;;;;;;;;;;23.84;48.62;99321.84;3147690;28;19924;-66
2022/08/06 02:43:02;;;;;;;;;;;;;;;23.89;48.46;99320.50;3147829;28;19981;-66
2022/08/06 02:44:39;;;;;;;;;;;;;;;23.90;48.37;99323.00;3149921;28;19920;-66
2022/08/06 02:46:13;;;;;;;;;;;;;;;23.92;48.27;99322.81;3148619;28;19920;-66
2022/08/06 02:47:48;;;;;;;;;;;;;;;23.93;48.31;99321.81;3147091;28;19924;-66
2022/08/06 02:49:22;;;;;;;;;;;;;;;23.94;48.54;99320.84;3146909;28;19932;-66
2022/08/06 02:50:54;;;;;;;;;;;;;;;23.94;48.52;99318.19;3147280;28;19924;-66
2022/08/06 02:52:29;;;;;;;;;;;;;;;23.93;48.41;99316.50;3147418;28;19921;-66
2022/08/06 02:54:03;;;;;;;;;;;;;;;23.90;48.40;99314.16;3147435;28;19924;-66
2022/08/06 02:55:35;;;;;;;;;;;;;;;23.89;48.40;99318.66;3147491;28;20011;-66
2022/08/06 02:57:08;;;;;;;;;;;;;;;23.87;48.36;99319.81;3147348;28;20399;-66
2022/08/06 02:58:41;;;;;;;;;;;;;;;23.84;48.29;99316.53;3145253;28;19925;-66
2022/08/06 03:00:13;;;;;;;;;;;;;;;23.84;48.20;99319.19;3147462;28;20025;-66
2022/08/06 03:01:50;;;;;;;;;;;;;;;23.83;48.39;99317.50;3147389;28;19981;-66
2022/08/06 03:03:23;;;;;;;;;;;;;;;23.81;48.15;99316.00;3147381;28;19924;-66
2022/08/06 03:04:55;;;;;;;;;;;;;;;23.80;48.65;99320.50;3147469;28;19978;-66
2022/08/06 03:06:29;;;;;;;;;;;;;;;23.78;48.37;99317.19;3147205;28;20322;-66
2022/08/06 03:08:02;;;;;;;;;;;;;;;23.80;48.20;99323.16;3147304;28;19964;-66
2022/08/06 03:09:34;;;;;;;;;;;;;;;23.80;48.10;99322.31;3147431;28;19977;-66
2022/08/06 03:11:05;;;;;;;;;;;;;;;23.81;48.26;99326.63;3146380;28;20053;-66
2022/08/06 03:12:38;;;;;;;;;;;;;;;23.79;48.40;99321.50;3147399;28;19931;-66
2022/08/06 03:14:11;;;;;;;;;;;;;;;23.78;48.29;99322.50;3147193;28;19924;-66
2022/08/06 03:15:43;;;;;;;;;;;;;;;23.78;49.01;99326.97;3147534;28;19920;-66
2022/08/06 03:17:17;;;;;;;;;;;;;;;23.72;48.68;99327.63;3147075;28;19924;-66
2022/08/06 03:18:49;;;;;;;;;;;;;;;23.73;48.17;99340.78;3146978;28;19978;-66
2022/08/06 03:20:23;;;;;;;;;;;;;;;23.71;48.57;99332.13;3147427;28;19928;-66
2022/08/06 03:21:56;;;;;;;;;;;;;;;23.73;48.58;99338.13;3146658;28;19931;-66
2022/08/06 03:23:29;;;;;;;;;;;;;;;23.70;48.49;99337.63;3147288;28;19924;-66
2022/08/06 03:25:01;;;;;;;;;;;;;;;23.69;48.59;99339.38;3147282;28;19932;-66
2022/08/06 03:26:33;;;;;;;;;;;;;;;23.71;48.50;99347.25;3147384;28;19928;-66
2022/08/06 03:28:04;;;;;;;;;;;;;;;23.69;48.58;99339.38;3147243;28;19939;-66
2022/08/06 03:29:38;;;;;;;;;;;;;;;23.69;48.50;99339.38;3147868;28;19920;-66
2022/08/06 03:31:10;;;;;;;;;;;;;;;23.71;48.30;99345.41;3146881;28;19924;-66
2022/08/06 03:32:43;;;;;;;;;;;;;;;23.71;48.35;99336.59;3147268;28;19924;-66
2022/08/06 03:34:15;;;;;;;;;;;;;;;23.71;48.31;99334.78;3147240;28;19924;-65
2022/08/06 03:35:48;;;;;;;;;;;;;;;23.72;48.10;99343.56;3146933;28;19924;-66
2022/08/06 03:37:21;;;;;;;;;;;;;;;23.72;48.48;99339.13;3147097;28;19924;-65
2022/08/06 03:38:55;;;;;;;;;;;;;;;23.70;48.40;99343.75;3147068;28;19924;-65
2022/08/06 03:40:28;;;;;;;;;;;;;;;23.71;48.51;99340.09;3140680;28;20118;-65
2022/08/06 03:42:00;;;;;;;;;;;;;;;23.68;48.29;99344.88;3147119;28;19931;-66
2022/08/06 03:43:31;;;;;;;;;;;;;;;23.67;48.39;99336.09;3146991;28;19920;-65
2022/08/06 03:45:04;;;;;;;;;;;;;;;23.66;48.43;99341.53;3149797;28;19921;-65
2022/08/06 03:46:38;;;;;;;;;;;;;;;23.67;48.61;99340.56;3147161;28;19932;-66
2022/08/06 03:48:12;;;;;;;;;;;;;;;23.68;48.53;99340.41;3146844;28;19990;-66
2022/08/06 03:49:48;;;;;;;;;;;;;;;23.57;49.12;99340.72;3147087;28;19983;-65
2022/08/06 03:51:21;;;;;;;;;;;;;;;23.47;49.61;99345.34;3146903;28;19948;-65
2022/08/06 03:52:55;;;;;;;;;;;;;;;23.44;49.70;99349.16;3146972;28;19982;-66
2022/08/06 03:54:26;;;;;;;;;;;;;;;23.43;49.35;99350.16;3147290;28;19920;-65
2022/08/06 03:55:59;;;;;;;;;;;;;;;23.43;49.24;99341.38;3147180;28;19920;-66
2022/08/06 03:57:33;;;;;;;;;;;;;;;23.39;49.81;99346.16;3146449;28;19947;-66
2022/08/06 03:59:05;;;;;;;;;;;;;;;23.37;49.55;99343.69;3146853;28;20331;-65
2022/08/06 04:00:40;;;;;;;;;;;;;;;23.37;49.77;99351.66;3152336;28;19925;-66
2022/08/06 04:02:13;;;;;;;;;;;;;;;23.31;49.78;99341.66;3146939;28;19931;-65
2022/08/06 04:03:47;;;;;;;;;;;;;;;23.25;49.88;99339.66;3146816;28;19924;-65
2022/08/06 04:05:19;;;;;;;;;;;;;;;23.19;50.35;99336.81;3147140;28;19932;-65
2022/08/06 04:06:52;;;;;;;;;;;;;;;23.12;50.73;99336.63;3146848;28;19920;-65
2022/08/06 04:08:25;;;;;;;;;;;;;;;23.06;50.60;99334.59;3146854;28;19920;-65
2022/08/06 04:09:56;;;;;;;;;;;;;;;23.07;50.40;99331.81;3140432;28;19931;-66
2022/08/06 04:11:29;;;;;;;;;;;;;;;23.07;50.78;99336.25;3146898;28;19924;-65
2022/08/06 04:13:00;;;;;;;;;;;;;;;23.00;50.99;99332.59;3147157;28;19924;-65
2022/08/06 04:14:32;;;;;;;;;;;;;;;22.98;51.30;99337.22;3146869;28;19931;-65
2022/08/06 04:16:04;;;;;;;;;;;;;;;22.99;50.83;99344.22;3147247;28;19920;-65
2022/08/06 04:17:37;;;;;;;;;;;;;;;22.99;50.73;99341.56;3146957;28;19924;-65
2022/08/06 04:19:11;;;;;;;;;;;;;;;23.00;50.78;99348.53;3146629;28;20016;-65
2022/08/06 04:20:44;;;;;;;;;;;;;;;22.95;51.04;99349.00;3146837;28;19946;-65
2022/08/06 04:22:16;;;;;;;;;;;;;;;22.96;51.00;99355.16;3142579;28;20363;-65
2022/08/06 04:23:48;;;;;;;;;;;;;;;22.98;50.73;99350.50;3149087;28;20241;-65
2022/08/06 04:25:19;;;;;;;;;;;;;;;22.93;50.94;99349.13;3149192;28;19924;-65
2022/08/06 04:26:53;;;;;;;;;;;;;;;22.97;50.53;99347.03;3149227;28;19920;-65
2022/08/06 04:28:25;;;;;;;;;;;;;;;23.00;50.87;99349.34;3149268;28;19920;-65
2022/08/06 04:29:58;;;;;;;;;;;;;;;23.04;50.44;99355.19;3155281;28;20359;-65
2022/08/06 04:31:30;;;;;;;;;;;;;;;23.07;50.26;99355.72;3148781;28;19925;-65
2022/08/06 04:33:02;;;;;;;;;;;;;;;23.10;50.45;99349.22;3149106;28;19927;-65
2022/08/06 04:34:37;;;;;;;;;;;;;;;23.11;50.74;99356.22;3149127;28;20785;-65
2022/08/06 04:36:09;;;;;;;;;;;;;;;23.09;50.49;99344.91;3149023;28;20568;-66
2022/08/06 04:37:41;;;;;;;;;;;;;;;23.11;50.43;99341.09;3148996;28;19920;-65
2022/08/06 04:39:14;;;;;;;;;;;;;;;23.11;50.96;99342.94;3149003;28;19920;-65
2022/08/06 04:40:45;;;;;;;;;;;;;;;23.04;50.93;99339.25;3148761;28;20606;-66
2022/08/06 04:42:18;;;;;;;;;;;;;;;23.04;50.94;99344.56;3148891;28;19925;-65
2022/08/06 04:43:50;;;;;;;;;;;;;;;23.04;50.85;99344.56;3148895;28;19924;-65
2022/08/06 04:45:22;;;;;;;;;;;;;;;23.06;50.85;99346.06;3150476;28;19920;-65
2022/08/06 04:46:54;;;;;;;;;;;;;;;23.10;50.54;99343.91;3149055;28;19963;-65
2022/08/06 04:48:26;;;;;;;;;;;;;;;23.14;50.54;99342.63;3148839;28;19928;-65
2022/08/06 04:50:00;;;;;;;;;;;;;;;23.16;50.48;99349.44;3148992;28;19920;-65
2022/08/06 04:51:30;;;;;;;;;;;;;;;23.15;50.58;99350.41;3148769;28;19924;-65
2022/08/06 04:53:05;;;;;;;;;;;;;;;23.18;50.38;99349.25;3147541;28;20006;-65
2022/08/06 04:54:37;;;;;;;;;;;;;;;23.17;50.83;99353.75;3148807;28;19924;-65
2022/08/06 04:56:08;;;;;;;;;;;;;;;23.17;50.67;99355.56;3148723;28;19954;-65
2022/08/06 04:57:40;;;;;;;;;;;;;;;23.22;50.46;99347.97;3148690;28;19924;-65
2022/08/06 04:59:10;;;;;;;;;;;;;;;23.25;50.50;99352.09;3148840;28;19924;-65
2022/08/06 05:00:43;;;;;;;;;;;;;;;23.27;50.35;99350.94;3152651;28;19985;-65
2022/08/06 05:02:15;;;;;;;;;;;;;;;23.30;50.35;99355.09;3148790;28;19935;-65
2022/08/06 05:03:47;;;;;;;;;;;;;;;23.29;50.65;99358.75;3148927;28;20045;-65
2022/08/06 05:05:21;;;;;;;;;;;;;;;23.31;50.43;99351.47;3148840;28;19924;-65
2022/08/06 05:06:56;;;;;;;;;;;;;;;23.34;50.52;99362.59;3148717;28;20395;-65
2022/08/06 05:08:29;;;;;;;;;;;;;;;23.41;50.29;99367.25;3148660;28;19932;-65
2022/08/06 05:10:01;;;;;;;;;;;;;;;23.44;50.44;99367.75;3148814;28;19996;-65
2022/08/06 05:11:35;;;;;;;;;;;;;;;23.48;50.65;99368.25;3148896;28;19924;-65
2022/08/06 05:13:09;;;;;;;;;;;;;;;23.53;50.24;99365.97;3148778;28;19928;-65
2022/08/06 05:14:44;;;;;;;;;;;;;;;23.58;50.20;99371.63;3148174;28;20421;-65
2022/08/06 05:16:17;;;;;;;;;;;;;;;23.67;49.74;99370.63;3148894;28;19927;-65
2022/08/06 05:17:51;;;;;;;;;;;;;;;23.75;49.52;99364.50;3148537;28;19920;-65
2022/08/06 05:19:26;;;;;;;;;;;;;;;23.83;49.31;99368.00;3148699;28;19931;-65
2022/08/06 05:21:01;;;;;;;;;;;;;;;23.91;49.43;99369.88;3148725;28;19982;-65
2022/08/06 05:22:33;;;;;;;;;;;;;;;23.98;48.98;99362.88;3148349;28;20291;-65
2022/08/06 05:24:05;;;;;;;;;;;;;;;24.04;48.98;99364.03;3148475;28;20229;-65
2022/08/06 05:25:37;;;;;;;;;;;;;;;24.11;49.03;99361.53;3148543;28;20359;-65
2022/08/06 05:27:10;;;;;;;;;;;;;;;24.16;48.92;99354.72;3148499;28;19946;-65
2022/08/06 05:28:43;;;;;;;;;;;;;;;24.22;48.87;99361.19;3148569;28;19920;-65
2022/08/06 05:30:14;;;;;;;;;;;;;;;24.29;48.69;99362.22;3153005;28;20626;-65
2022/08/06 05:31:45;;;;;;;;;;;;;;;24.36;48.60;99357.88;3148359;28;19943;-65
2022/08/06 05:33:24;;;;;;;;;;;;;;;24.46;48.52;99363.03;3147970;28;19947;-65
2022/08/06 05:34:56;;;;;;;;;;;;;;;24.55;48.67;99359.38;3148092;28;20023;-65
2022/08/06 05:36:29;;;;;;;;;;;;;;;24.62;48.23;99360.34;3148268;28;19939;-65
2022/08/06 05:38:00;;;;;;;;;;;;;;;24.69;48.33;99363.97;3148480;28;19985;-65
2022/08/06 05:39:32;;;;;;;;;;;;;;;24.77;47.97;99359.63;3148314;28;20058;-65
2022/08/06 05:41:04;;;;;;;;;;;;;;;24.85;48.18;99364.94;3148416;28;19931;-65
2022/08/06 05:42:36;;;;;;;;;;;;;;;24.92;47.78;99363.25;3148465;28;19927;-65
2022/08/06 05:44:08;;;;;;;;;;;;;;;24.99;47.26;99361.53;3148155;28;19931;-65
2022/08/06 05:45:40;;;;;;;;;;;;;;;25.04;46.99;99367.19;3148528;28;19924;-65
2022/08/06 05:47:14;;;;;;;;;;;;;;;25.13;47.09;99362.66;3148445;28;19920;-65
2022/08/06 05:48:49;;;;;;;;;;;;;;;25.22;46.80;99361.63;3147942;28;19935;-65
2022/08/06 05:50:23;;;;;;;;;;;;;;;25.29;46.72;99362.63;3148204;28;19931;-65
2022/08/06 05:52:03;;;;;;;;;;;;;;;25.38;46.58;99366.91;3148377;28;19935;-65
2022/08/06 05:53:39;;;;;;;;;;;;;;;25.50;45.95;99364.66;3148314;28;19924;-65
2022/08/06 05:55:13;;;;;;;;;;;;;;;25.61;46.22;99366.91;3148195;28;20283;-65
2022/08/06 05:56:47;;;;;;;;;;;;;;;25.71;45.96;99357.88;3148338;28;19935;-65
2022/08/06 05:58:20;;;;;;;;;;;;;;;25.80;45.66;99359.47;3148200;28;19935;-65
2022/08/06 05:59:54;;;;;;;;;;;;;;;25.90;45.50;99360.06;3150612;28;19931;-65
2022/08/06 06:01:27;;;;;;;;;;;;;;;25.96;44.83;99359.34;3141784;28;19921;-65
2022/08/06 06:02:59;;;;;;;;;;;;;;;26.06;44.42;99362.63;3148317;28;19967;-66
2022/08/06 06:04:32;;;;;;;;;;;;;;;26.16;44.59;99358.88;3148213;28;19920;-65
2022/08/06 06:06:04;;;;;;;;;;;;;;;26.29;44.23;99354.53;3147919;28;19924;-65
2022/08/06 06:07:37;;;;;;;;;;;;;;;26.40;43.87;99360.47;3148104;28;20355;-65
2022/08/06 06:09:09;;;;;;;;;;;;;;;26.50;44.20;99364.59;3144411;28;19928;-65
2022/08/06 06:10:41;;;;;;;;;;;;;;;26.66;43.87;99360.91;3147713;28;19920;-65
2022/08/06 06:12:13;;;;;;;;;;;;;;;26.89;43.52;99362.66;3148075;28;19934;-65
2022/08/06 06:13:46;;;;;;;;;;;;;;;27.12;42.96;99359.84;3147864;28;20240;-65
2022/08/06 06:15:18;;;;;;;;;;;;;;;27.29;42.70;99355.16;3147979;28;20345;-65
2022/08/06 06:16:58;;;;;;;;;;;;;;;27.38;42.61;99362.03;3147856;28;20301;-65
2022/08/06 06:18:36;;;;;;;;;;;;;;;27.44;42.37;99355.94;3147919;28;20288;-65
2022/08/06 06:20:11;;;;;;;;;;;;;;;27.50;42.49;99354.34;3147950;28;20020;-65
2022/08/06 06:21:48;;;;;;;;;;;;;;;27.54;42.54;99356.47;3147595;28;20407;-65
2022/08/06 06:23:27;;;;;;;;;;;;;;;27.57;41.97;99355.25;3146410;28;19973;-65
2022/08/06 06:25:00;;;;;;;;;;;;;;;27.56;42.44;99353.59;3147791;28;19932;-65
2022/08/06 06:26:37;;;;;;;;;;;;;;;27.59;42.37;99361.22;3148082;28;19921;-65
2022/08/06 06:28:13;;;;;;;;;;;;;;;27.64;42.46;99356.16;3148066;28;19948;-65
2022/08/06 06:29:48;;;;;;;;;;;;;;;27.73;42.34;99351.50;3151112;28;20358;-65
2022/08/06 06:31:25;;;;;;;;;;;;;;;27.84;42.23;99349.16;3147195;28;19989;-65
2022/08/06 06:33:03;;;;;;;;;;;;;;;27.97;41.99;99350.31;3147321;28;19925;-65
2022/08/06 06:34:49;;;;;;;;;;;;;;;28.09;41.74;99341.53;3147915;28;19976;-65
2022/08/06 06:36:24;;;;;;;;;;;;;;;28.17;41.48;99340.59;3147884;28;19927;-65
2022/08/06 06:37:59;;;;;;;;;;;;;;;28.27;41.95;99342.91;3147560;28;20225;-65
2022/08/06 06:39:34;;;;;;;;;;;;;;;28.36;41.69;99339.06;3147716;28;19924;-65
2022/08/06 06:41:10;;;;;;;;;;;;;;;28.39;41.32;99335.19;3147489;28;19920;-65
2022/08/06 06:42:45;;;;;;;;;;;;;;;28.43;41.94;99334.63;3147774;28;19927;-65
2022/08/06 06:44:18;;;;;;;;;;;;;;;28.46;42.03;99333.41;3147742;28;19927;-65
2022/08/06 06:45:54;;;;;;;;;;;;;;;28.52;41.57;99338.00;3142660;28;19924;-65
2022/08/06 06:47:29;;;;;;;;;;;;;;;28.61;41.99;99333.31;3148043;28;19920;-65
2022/08/06 06:49:01;;;;;;;;;;;;;;;28.62;41.52;99342.97;3142436;28;19931;-65
2022/08/06 06:50:35;;;;;;;;;;;;;;;28.61;41.32;99328.75;3148153;28;19931;-64
2022/08/06 06:52:10;;;;;;;;;;;;;;;28.55;41.09;99326.88;3146540;28;19928;-64
2022/08/06 06:53:45;;;;;;;;;;;;;;;28.61;41.53;99327.94;3148328;28;19931;-64
2022/08/06 06:55:24;;;;;;;;;;;;;;;28.67;41.09;99325.28;3148663;28;19920;-64
2022/08/06 06:56:57;;;;;;;;;;;;;;;28.73;41.05;99318.31;3149544;28;19920;-65
2022/08/06 06:58:33;;;;;;;;;;;;;;;28.79;40.78;99317.53;3148428;28;20288;-64
2022/08/06 07:00:06;;;;;;;;;;;;;;;28.82;40.81;99335.06;3149064;28;20450;-64
2022/08/06 07:01:38;;;;;;;;;;;;;;;28.82;40.56;99321.66;3148678;28;19920;-64
2022/08/06 07:03:11;;;;;;;;;;;;;;;28.88;40.52;99320.88;3148495;28;19967;-65
2022/08/06 07:04:43;;;;;;;;;;;;;;;28.98;40.57;99324.81;3147838;28;19932;-64
2022/08/06 07:06:15;;;;;;;;;;;;;;;29.10;40.56;99322.41;3147734;28;19924;-64
2022/08/06 07:07:48;;;;;;;;;;;;;;;29.22;40.53;99323.50;3147511;28;19920;-64
2022/08/06 07:09:22;;;;;;;;;;;;;;;29.36;39.90;99318.16;3147725;28;19924;-64
2022/08/06 07:10:56;;;;;;;;;;;;;;;29.43;39.90;99310.94;3147852;28;20338;-64
2022/08/06 07:12:28;;;;;;;;;;;;;;;29.53;39.65;99311.38;3147875;28;19921;-65
2022/08/06 07:14:01;;;;;;;;;;;;;;;29.64;39.83;99316.19;3147584;28;19924;-64
2022/08/06 07:15:33;;;;;;;;;;;;;;;29.75;39.49;99316.59;3147644;28;19928;-64
2022/08/06 07:17:05;;;;;;;;;;;;;;;29.83;39.33;99311.84;3147742;28;19935;-65
2022/08/06 07:18:37;;;;;;;;;;;;;;;29.91;39.19;99317.03;3147869;28;19920;-64
2022/08/06 07:20:10;;;;;;;;;;;;;;;29.91;39.16;99308.97;3147752;28;19920;-65
2022/08/06 07:21:43;;;;;;;;;;;;;;;29.99;38.67;99312.47;3147519;28;25282;-65
2022/08/06 07:23:17;;;;;;;;;;;;;;;30.04;38.74;99310.81;3147243;28;19986;-65
2022/08/06 07:24:49;;;;;;;;;;;;;;;30.11;38.69;99311.66;3147928;28;20295;-64
2022/08/06 07:26:23;;;;;;;;;;;;;;;30.18;38.40;99300.91;3147649;28;19921;-65
2022/08/06 07:27:55;;;;;;;;;;;;;;;30.28;38.28;99311.25;3147680;28;19924;-65
2022/08/06 07:29:28;;;;;;;;;;;;;;;30.34;37.97;99311.22;3148692;28;20255;-64
2022/08/06 07:31:00;;;;;;;;;;;;;;;30.34;38.09;99310.41;3147232;28;19924;-65
2022/08/06 07:32:32;;;;;;;;;;;;;;;30.37;37.96;99305.44;3147695;28;19920;-64
2022/08/06 07:34:04;;;;;;;;;;;;;;;30.39;38.14;99302.53;3147917;28;19931;-65
2022/08/06 07:35:37;;;;;;;;;;;;;;;30.40;37.82;99312.25;3147947;28;19930;-65
2022/08/06 07:37:11;;;;;;;;;;;;;;;30.42;37.85;99304.81;3147385;28;20305;-65
2022/08/06 07:38:44;;;;;;;;;;;;;;;30.46;37.89;99299.84;3147835;28;19924;-64
2022/08/06 07:40:19;;;;;;;;;;;;;;;30.46;38.13;99302.53;3147935;28;19931;-65
2022/08/06 07:41:53;;;;;;;;;;;;;;;30.51;37.84;99300.03;3147918;28;19981;-64
2022/08/06 07:43:26;;;;;;;;;;;;;;;30.51;37.90;99300.84;3147418;28;20351;-65
2022/08/06 07:45:00;;;;;;;;;;;;;;;30.51;37.88;99297.34;3151763;28;19920;-64
2022/08/06 07:46:35;;;;;;;;;;;;;;;30.57;37.44;99299.19;3147481;28;19970;-65
2022/08/06 07:48:08;;;;;;;;;;;;;;;30.63;37.36;99301.03;3147035;28;19920;-65
2022/08/06 07:49:42;;;;;;;;;;;;;;;30.70;37.17;99303.69;3147148;28;20418;-67
2022/08/06 07:51:14;;;;;;;;;;;;;;;30.73;37.40;99300.56;3140756;28;19921;-65
2022/08/06 07:52:47;;;;;;;;;;;;;;;30.78;37.52;99301.63;3146952;28;19920;-65
2022/08/06 07:54:19;;;;;;;;;;;;;;;30.89;37.20;99296.63;3146772;28;19921;-65
2022/08/06 07:55:51;;;;;;;;;;;;;;;30.96;37.20;99298.25;3147229;28;19959;-65
2022/08/06 07:57:25;;;;;;;;;;;;;;;31.01;37.22;99295.75;3148422;28;19927;-65
2022/08/06 07:58:58;;;;;;;;;;;;;;;31.13;37.09;99293.19;3149796;28;19931;-65
2022/08/06 08:00:31;;;;;;;;;;;;;;;31.28;37.03;99291.03;3156004;28;19935;-65
2022/08/06 08:02:05;;;;;;;;;;;;;;;31.41;36.70;99290.19;3149438;28;19979;-65
2022/08/06 08:07:15;;;;;;;;;;;;;;;31.85;36.11;99283.00;3148184;28;19924;-65
2022/08/06 08:08:47;;;;;;;;;;;;;;;31.99;35.80;99282.91;3148221;28;19932;-65